Time;durP1;ratioP1;P1;durP2;ratioP2;P2;SDS_P1;SDS_P2;PMS_P1;PMS_P2;Temp;Humidity;BMP_temperature;BMP_pressure;BME280_temperature;BME280_humidity;BME280_pressure;Samples;Min_cycle;Max_cycle;Signal;HPM_P1;HPM_P2
2022/12/04 00:02:43;;;;;;;;;28.25;22.00;;;;;;;;5062544;28;51166;-44
2022/12/04 00:05:27;;;;;;;;;26.00;23.00;;;;;;;;5062564;28;51526;-49
2022/12/04 00:08:12;;;;;;;;;25.75;22.50;;;;;;;;5062220;28;51371;-50
2022/12/04 00:10:57;;;;;;;;;27.00;22.00;;;;;;;;5062692;28;51050;-42
2022/12/04 00:13:41;;;;;;;;;24.50;20.50;;;;;;;;5062462;28;51056;-47
2022/12/04 00:16:28;;;;;;;;;23.50;20.00;;;;;;;;5062228;28;51480;-47
2022/12/04 00:19:12;;;;;;;;;24.25;21.50;;;;;;;;5062279;28;51179;-43
2022/12/04 00:21:56;;;;;;;;;21.25;19.25;;;;;;;;5062327;28;51061;-45
2022/12/04 00:24:41;;;;;;;;;25.25;19.75;;;;;;;;5061837;28;51367;-45
2022/12/04 00:27:25;;;;;;;;;24.75;20.50;;;;;;;;5062087;28;51193;-41
2022/12/04 00:30:10;;;;;;;;;23.75;22.75;;;;;;;;5062225;28;51130;-44
2022/12/04 00:32:54;;;;;;;;;21.00;20.50;;;;;;;;5073959;27;51163;-44
2022/12/04 00:35:39;;;;;;;;;22.75;21.50;;;;;;;;5082322;27;51168;-46
2022/12/04 00:38:23;;;;;;;;;26.00;23.75;;;;;;;;5077008;27;51200;-44
2022/12/04 00:41:08;;;;;;;;;23.25;20.75;;;;;;;;5082217;27;51430;-47
2022/12/04 00:43:53;;;;;;;;;24.75;20.50;;;;;;;;5081764;27;51097;-45
2022/12/04 00:46:37;;;;;;;;;27.25;23.25;;;;;;;;5082415;27;50979;-42
2022/12/04 00:49:21;;;;;;;;;31.75;26.25;;;;;;;;5080612;27;51409;-47
2022/12/04 00:52:06;;;;;;;;;27.50;25.50;;;;;;;;5081563;27;51084;-43
2022/12/04 00:54:50;;;;;;;;;28.25;24.25;;;;;;;;5082092;27;51132;-45
2022/12/04 00:57:35;;;;;;;;;32.25;25.00;;;;;;;;5079633;27;51147;-47
2022/12/04 01:00:19;;;;;;;;;26.25;23.25;;;;;;;;5081240;27;51092;-46
2022/12/04 01:03:04;;;;;;;;;30.00;24.50;;;;;;;;5081839;27;51061;-43
2022/12/04 01:05:49;;;;;;;;;25.00;23.25;;;;;;;;5080841;27;51137;-45
2022/12/04 01:08:33;;;;;;;;;27.00;24.25;;;;;;;;5075696;27;51060;-47
2022/12/04 01:11:19;;;;;;;;;19.75;19.25;;;;;;;;5081569;27;51016;-44
2022/12/04 01:14:03;;;;;;;;;22.50;19.75;;;;;;;;5081364;27;51515;-44
2022/12/04 01:16:48;;;;;;;;;24.00;22.50;;;;;;;;5080693;27;51158;-44
2022/12/04 01:19:32;;;;;;;;;25.00;24.50;;;;;;;;5081293;27;51626;-42
2022/12/04 01:22:17;;;;;;;;;27.25;25.00;;;;;;;;5081328;27;51023;-48
2022/12/04 01:25:01;;;;;;;;;26.75;25.25;;;;;;;;5081200;27;51389;-46
2022/12/04 01:27:46;;;;;;;;;31.00;25.75;;;;;;;;5081158;27;51156;-43
2022/12/04 01:30:30;;;;;;;;;27.00;24.25;;;;;;;;5081262;27;51607;-47
2022/12/04 01:33:15;;;;;;;;;28.25;23.00;;;;;;;;5077614;27;51206;-47
2022/12/04 01:36:00;;;;;;;;;29.50;24.75;;;;;;;;5081167;27;51065;-48
2022/12/04 01:38:44;;;;;;;;;31.50;24.25;;;;;;;;5080958;27;51937;-46
2022/12/04 01:41:30;;;;;;;;;25.00;24.00;;;;;;;;5081178;27;51112;-46
2022/12/04 01:44:17;;;;;;;;;28.50;23.50;;;;;;;;5080951;27;51531;-47
2022/12/04 01:47:01;;;;;;;;;32.50;26.00;;;;;;;;5080839;27;51074;-43
2022/12/04 01:49:46;;;;;;;;;29.50;23.75;;;;;;;;5080594;27;51544;-44
2022/12/04 01:52:31;;;;;;;;;26.25;24.25;;;;;;;;5080790;27;51081;-44
2022/12/04 01:55:15;;;;;;;;;30.50;24.75;;;;;;;;5080651;27;51105;-45
2022/12/04 01:58:01;;;;;;;;;25.75;23.00;;;;;;;;5080851;27;51093;-44
2022/12/04 02:00:47;;;;;;;;;29.50;27.25;;;;;;;;5080834;27;51119;-45
2022/12/04 02:03:31;;;;;;;;;27.00;23.00;;;;;;;;5080337;27;51223;-45
2022/12/04 02:06:15;;;;;;;;;28.00;24.75;;;;;;;;5071344;27;52264;-49
2022/12/04 02:09:00;;;;;;;;;26.50;25.75;;;;;;;;5074215;27;51371;-47
2022/12/04 02:11:51;;;;;;;;;26.25;23.50;;;;;;;;5080380;27;51011;-42
2022/12/04 02:14:41;;;;;;;;;31.25;23.75;;;;;;;;5079972;27;51041;-44
2022/12/04 02:17:37;;;;;;;;;29.00;24.25;;;;;;;;5080090;27;51200;-45
2022/12/04 02:20:37;;;;;;;;;27.50;20.00;;;;;;;;5080464;27;51155;-47
2022/12/04 02:23:37;;;;;;;;;31.25;25.75;;;;;;;;5080067;27;51187;-49
2022/12/04 02:26:29;;;;;;;;;27.25;22.50;;;;;;;;5080292;27;51163;-45
2022/12/04 02:29:25;;;;;;;;;25.25;24.75;;;;;;;;5080171;27;51393;-47
2022/12/04 02:32:21;;;;;;;;;29.25;23.25;;;;;;;;5080005;27;51157;-43
2022/12/04 02:35:09;;;;;;;;;28.25;21.75;;;;;;;;5068754;27;51245;-42
2022/12/04 02:38:05;;;;;;;;;27.50;22.75;;;;;;;;5059770;28;51070;-48
2022/12/04 02:41:19;;;;;;;;;27.75;24.50;;;;;;;;5059464;28;51330;-50
2022/12/04 02:44:06;;;;;;;;;30.25;25.75;;;;;;;;5055806;27;51222;-46
2022/12/04 02:46:55;;;;;;;;;27.00;24.50;;;;;;;;5059693;28;51526;-49
2022/12/04 02:49:43;;;;;;;;;23.00;21.50;;;;;;;;5072632;27;51175;-43
2022/12/04 02:52:31;;;;;;;;;26.00;24.25;;;;;;;;5079693;27;51078;-48
2022/12/04 02:55:25;;;;;;;;;24.50;21.25;;;;;;;;5079298;27;51466;-46
2022/12/04 02:58:29;;;;;;;;;24.25;22.50;;;;;;;;5079685;27;51095;-47
2022/12/04 03:01:18;;;;;;;;;28.00;21.75;;;;;;;;5079754;27;51512;-43
2022/12/04 03:04:08;;;;;;;;;28.50;27.00;;;;;;;;5079881;27;51203;-45
2022/12/04 03:07:13;;;;;;;;;29.75;24.75;;;;;;;;5079558;28;51331;-42
2022/12/04 03:10:00;;;;;;;;;25.50;21.25;;;;;;;;5079678;28;51061;-45
2022/12/04 03:12:51;;;;;;;;;25.25;22.75;;;;;;;;5079388;28;51668;-44
2022/12/04 03:15:38;;;;;;;;;22.00;20.00;;;;;;;;5079466;28;51053;-47
2022/12/04 03:18:27;;;;;;;;;29.00;24.75;;;;;;;;5075193;28;51144;-49
2022/12/04 03:21:20;;;;;;;;;26.50;21.50;;;;;;;;5072147;28;51331;-44
2022/12/04 03:24:21;;;;;;;;;15.00;10.00;;;;;;;;5079210;28;51026;-43
2022/12/04 03:27:05;;;;;;;;;26.50;23.75;;;;;;;;5079114;28;51072;-44
2022/12/04 03:29:57;;;;;;;;;22.75;20.50;;;;;;;;5082272;27;51013;-45
2022/12/04 03:32:41;;;;;;;;;27.25;21.50;;;;;;;;5083212;27;51355;-47
2022/12/04 03:35:28;;;;;;;;;27.00;24.75;;;;;;;;5083176;27;51275;-43
2022/12/04 03:38:16;;;;;;;;;27.25;21.75;;;;;;;;5083168;27;51384;-47
2022/12/04 03:41:02;;;;;;;;;25.00;22.50;;;;;;;;5083132;27;51095;-46
2022/12/04 03:43:49;;;;;;;;;26.25;22.25;;;;;;;;5083567;27;50990;-45
2022/12/04 03:46:53;;;;;;;;;25.25;21.25;;;;;;;;5082860;27;51518;-43
2022/12/04 03:49:45;;;;;;;;;24.25;19.50;;;;;;;;5066882;27;51227;-43
2022/12/04 03:52:56;;;;;;;;;26.75;20.50;;;;;;;;5082733;27;51116;-43
2022/12/04 03:55:44;;;;;;;;;24.00;21.25;;;;;;;;5072351;27;51168;-44
2022/12/04 03:58:31;;;;;;;;;23.25;22.75;;;;;;;;5082844;27;51426;-42
2022/12/04 04:01:18;;;;;;;;;24.25;18.50;;;;;;;;5082924;27;51118;-44
2022/12/04 04:04:04;;;;;;;;;25.50;22.75;;;;;;;;5082392;27;51490;-48
2022/12/04 04:07:02;;;;;;;;;22.25;19.25;;;;;;;;5082574;27;51128;-49
2022/12/04 04:09:48;;;;;;;;;21.50;19.75;;;;;;;;5083005;27;51199;-48
2022/12/04 04:12:36;;;;;;;;;24.00;19.75;;;;;;;;5082533;27;51427;-43
2022/12/04 04:24:32;;;;;;;;;25.25;19.25;;;;;;;;5081972;27;51004;-43
2022/12/04 04:27:16;;;;;;;;;22.00;20.25;;;;;;;;5082208;27;51009;-45
2022/12/04 04:30:01;;;;;;;;;23.50;22.50;;;;;;;;5082514;27;51183;-46
2022/12/04 04:33:05;;;;;;;;;25.00;20.25;;;;;;;;5081834;27;51049;-45
2022/12/04 04:36:03;;;;;;;;;21.25;20.25;;;;;;;;5082177;27;51089;-45
2022/12/04 04:38:59;;;;;;;;;25.75;18.75;;;;;;;;5080861;27;51949;-42
2022/12/04 04:41:53;;;;;;;;;21.25;18.50;;;;;;;;5080490;27;51141;-43
2022/12/04 04:44:44;;;;;;;;;20.25;17.50;;;;;;;;5082136;27;51148;-45
2022/12/04 04:47:43;;;;;;;;;22.25;18.50;;;;;;;;5077170;27;51084;-45
2022/12/04 04:50:28;;;;;;;;;21.50;19.00;;;;;;;;5081817;27;51018;-42
2022/12/04 04:53:16;;;;;;;;;25.00;20.00;;;;;;;;5082093;27;51209;-42
2022/12/04 04:56:01;;;;;;;;;20.00;19.00;;;;;;;;5081665;27;51429;-41
2022/12/04 04:58:45;;;;;;;;;22.00;20.25;;;;;;;;5081663;27;51142;-44
2022/12/04 05:01:30;;;;;;;;;19.25;18.25;;;;;;;;5080030;27;51080;-43
2022/12/04 05:04:14;;;;;;;;;24.50;20.00;;;;;;;;5081322;27;51067;-43
2022/12/04 05:06:59;;;;;;;;;25.50;19.75;;;;;;;;5077078;27;51467;-43
2022/12/04 05:09:43;;;;;;;;;24.00;22.00;;;;;;;;5081765;27;51073;-43
2022/12/04 05:12:28;;;;;;;;;24.00;18.75;;;;;;;;5079679;27;51096;-44
2022/12/04 05:15:12;;;;;;;;;25.00;19.50;;;;;;;;5081459;27;51462;-44
2022/12/04 05:17:56;;;;;;;;;25.00;20.25;;;;;;;;5075781;27;51179;-43
2022/12/04 05:20:41;;;;;;;;;25.00;18.75;;;;;;;;5083085;27;51662;-45
2022/12/04 05:23:25;;;;;;;;;24.00;20.00;;;;;;;;5081307;27;51571;-43
2022/12/04 05:26:10;;;;;;;;;19.50;16.50;;;;;;;;5080696;27;51072;-44
2022/12/04 05:28:54;;;;;;;;;26.25;19.50;;;;;;;;5080792;27;51556;-43
2022/12/04 05:31:39;;;;;;;;;21.25;18.25;;;;;;;;5076999;27;51156;-43
2022/12/04 05:34:23;;;;;;;;;23.25;21.75;;;;;;;;5080026;27;51118;-44
2022/12/04 05:37:07;;;;;;;;;29.50;22.75;;;;;;;;5081221;27;51056;-46
2022/12/04 05:39:52;;;;;;;;;22.00;18.25;;;;;;;;5080890;27;51120;-47
2022/12/04 05:42:36;;;;;;;;;26.75;21.25;;;;;;;;5081159;27;50999;-45
2022/12/04 05:45:21;;;;;;;;;31.50;24.25;;;;;;;;5094346;27;51316;-42
2022/12/04 05:48:05;;;;;;;;;23.25;20.75;;;;;;;;5080642;27;51105;-44
2022/12/04 05:50:49;;;;;;;;;22.00;18.25;;;;;;;;5080929;27;51066;-44
2022/12/04 05:53:34;;;;;;;;;25.50;20.00;;;;;;;;5080206;27;51203;-48
2022/12/04 05:56:18;;;;;;;;;25.00;21.25;;;;;;;;5080734;27;51035;-46
2022/12/04 05:59:02;;;;;;;;;23.00;20.00;;;;;;;;5080631;27;51128;-49
2022/12/04 06:01:47;;;;;;;;;24.00;20.00;;;;;;;;5080757;27;51076;-50
2022/12/04 06:04:31;;;;;;;;;26.75;19.75;;;;;;;;5080443;27;51128;-46
2022/12/04 06:07:15;;;;;;;;;32.00;24.75;;;;;;;;5077076;27;51188;-45
2022/12/04 06:10:00;;;;;;;;;50.75;37.75;;;;;;;;5079254;27;51136;-44
2022/12/04 06:12:44;;;;;;;;;53.25;37.50;;;;;;;;5080356;27;51068;-46
2022/12/04 06:15:29;;;;;;;;;49.25;38.00;;;;;;;;5080615;27;51151;-44
2022/12/04 06:18:13;;;;;;;;;59.00;43.25;;;;;;;;5059864;27;51161;-49
2022/12/04 06:20:58;;;;;;;;;45.00;35.00;;;;;;;;5077000;27;51680;-45
2022/12/04 06:23:42;;;;;;;;;55.50;43.50;;;;;;;;5079935;27;51174;-47
2022/12/04 06:26:27;;;;;;;;;44.25;34.00;;;;;;;;5076262;27;51236;-47
2022/12/04 06:29:11;;;;;;;;;40.75;33.75;;;;;;;;5077086;27;51165;-44
2022/12/04 06:31:56;;;;;;;;;21.75;20.25;;;;;;;;5079898;27;51106;-49
2022/12/04 06:34:40;;;;;;;;;21.25;19.00;;;;;;;;5080232;27;51448;-49
2022/12/04 06:37:25;;;;;;;;;24.00;21.25;;;;;;;;5078954;27;51070;-44
2022/12/04 06:40:09;;;;;;;;;24.00;20.00;;;;;;;;5059926;28;51166;-45
2022/12/04 06:42:56;;;;;;;;;21.50;17.25;;;;;;;;5077922;27;52138;-46
2022/12/04 06:45:40;;;;;;;;;24.25;20.00;;;;;;;;5079759;27;51510;-43
2022/12/04 06:48:27;;;;;;;;;20.00;16.50;;;;;;;;5070315;27;51161;-46
2022/12/04 06:51:13;;;;;;;;;24.75;20.50;;;;;;;;5074580;27;51032;-45
2022/12/04 06:53:58;;;;;;;;;25.75;22.00;;;;;;;;5079399;27;51338;-44
2022/12/04 06:56:42;;;;;;;;;25.25;19.50;;;;;;;;5079619;27;51132;-44
2022/12/04 06:59:26;;;;;;;;;20.50;18.00;;;;;;;;5079793;27;51148;-43
2022/12/04 07:02:11;;;;;;;;;20.75;18.25;;;;;;;;5079246;27;51043;-46
2022/12/04 07:04:58;;;;;;;;;22.75;21.25;;;;;;;;5079245;27;51082;-43
2022/12/04 07:07:43;;;;;;;;;25.75;23.75;;;;;;;;5079507;28;51034;-44
2022/12/04 07:10:28;;;;;;;;;22.75;21.00;;;;;;;;5078437;27;51205;-48
2022/12/04 07:13:12;;;;;;;;;21.25;18.75;;;;;;;;5075354;28;51131;-48
2022/12/04 07:15:59;;;;;;;;;23.50;19.00;;;;;;;;5079740;28;51148;-46
2022/12/04 07:18:43;;;;;;;;;20.00;19.00;;;;;;;;5079083;28;51088;-45
2022/12/04 07:21:29;;;;;;;;;21.25;18.25;;;;;;;;5077289;28;51108;-47
2022/12/04 07:24:15;;;;;;;;;22.00;19.75;;;;;;;;5079448;28;51090;-42
2022/12/04 07:26:59;;;;;;;;;18.25;17.25;;;;;;;;5078944;28;51443;-47
2022/12/04 07:29:44;;;;;;;;;19.25;18.25;;;;;;;;5079571;28;51097;-46
2022/12/04 07:32:28;;;;;;;;;21.25;19.25;;;;;;;;5078994;28;51153;-45
2022/12/04 07:35:13;;;;;;;;;21.00;18.50;;;;;;;;5067580;28;51721;-46
2022/12/04 07:37:57;;;;;;;;;23.50;18.50;;;;;;;;5067281;28;51065;-48
2022/12/04 07:40:41;;;;;;;;;20.75;19.25;;;;;;;;5060127;28;51091;-50
2022/12/04 07:43:27;;;;;;;;;19.75;18.25;;;;;;;;5058681;28;51129;-46
2022/12/04 07:46:13;;;;;;;;;16.50;15.25;;;;;;;;5059094;28;51115;-46
2022/12/04 07:48:58;;;;;;;;;17.75;14.75;;;;;;;;5059068;28;51571;-46
2022/12/04 07:51:42;;;;;;;;;25.75;22.75;;;;;;;;5058539;28;51553;-45
2022/12/04 07:54:27;;;;;;;;;21.50;20.50;;;;;;;;5059523;28;51512;-44
2022/12/04 07:57:11;;;;;;;;;25.75;19.75;;;;;;;;5061209;28;51318;-50
2022/12/04 07:59:56;;;;;;;;;19.25;17.50;;;;;;;;5062813;28;51153;-43
2022/12/04 08:02:41;;;;;;;;;19.25;17.75;;;;;;;;5061707;28;51023;-44
2022/12/04 08:05:26;;;;;;;;;18.75;16.00;;;;;;;;5059344;28;50917;-44
2022/12/04 08:08:10;;;;;;;;;19.00;16.00;;;;;;;;5057922;28;51080;-46
2022/12/04 08:10:55;;;;;;;;;21.50;18.75;;;;;;;;5073382;28;51149;-47
2022/12/04 08:13:39;;;;;;;;;20.25;17.00;;;;;;;;5078512;28;51403;-46
2022/12/04 08:16:24;;;;;;;;;19.25;17.25;;;;;;;;5073275;27;51305;-49
2022/12/04 08:19:09;;;;;;;;;20.00;18.25;;;;;;;;5081351;27;51077;-46
2022/12/04 08:21:53;;;;;;;;;19.75;17.75;;;;;;;;5082192;27;51101;-48
2022/12/04 08:24:38;;;;;;;;;19.00;16.00;;;;;;;;5082509;27;51424;-45
2022/12/04 08:27:22;;;;;;;;;22.50;19.00;;;;;;;;5081556;27;51121;-43
2022/12/04 08:30:07;;;;;;;;;25.25;20.75;;;;;;;;5078728;27;51063;-46
2022/12/04 08:32:51;;;;;;;;;26.25;19.25;;;;;;;;5081964;27;51133;-45
2022/12/04 08:35:36;;;;;;;;;23.00;17.25;;;;;;;;5082225;27;50963;-46
2022/12/04 08:38:20;;;;;;;;;22.25;19.25;;;;;;;;5063252;27;51055;-45
2022/12/04 08:41:05;;;;;;;;;17.75;17.50;;;;;;;;5069073;27;51226;-45
2022/12/04 08:43:50;;;;;;;;;23.50;19.00;;;;;;;;5064979;27;51282;-44
2022/12/04 08:46:34;;;;;;;;;27.00;20.25;;;;;;;;5061702;28;51112;-44
2022/12/04 08:49:19;;;;;;;;;16.50;15.50;;;;;;;;5061580;28;51103;-47
2022/12/04 08:52:03;;;;;;;;;21.25;18.75;;;;;;;;5061555;28;51000;-45
2022/12/04 08:54:49;;;;;;;;;22.75;18.50;;;;;;;;5061825;28;51046;-45
2022/12/04 08:57:33;;;;;;;;;22.00;20.25;;;;;;;;5061220;28;51390;-45
2022/12/04 09:00:18;;;;;;;;;21.75;17.75;;;;;;;;5061346;28;51114;-46
2022/12/04 09:03:03;;;;;;;;;17.25;17.25;;;;;;;;5061502;28;51385;-45
2022/12/04 09:05:47;;;;;;;;;21.25;20.25;;;;;;;;5061191;28;51067;-46
2022/12/04 09:08:32;;;;;;;;;24.00;21.00;;;;;;;;5061482;28;51190;-45
2022/12/04 09:11:19;;;;;;;;;24.00;20.50;;;;;;;;5078565;27;51537;-46
2022/12/04 09:14:03;;;;;;;;;18.50;15.25;;;;;;;;5081659;27;51358;-46
2022/12/04 09:16:48;;;;;;;;;23.25;21.75;;;;;;;;5077137;27;51148;-50
2022/12/04 09:19:34;;;;;;;;;23.50;20.25;;;;;;;;5081618;27;51193;-44
2022/12/04 09:22:18;;;;;;;;;23.50;21.25;;;;;;;;5080888;27;51187;-44
2022/12/04 09:25:04;;;;;;;;;24.00;19.25;;;;;;;;5072239;27;51126;-45
2022/12/04 09:27:48;;;;;;;;;23.25;22.00;;;;;;;;5055007;27;52345;-44
2022/12/04 09:30:32;;;;;;;;;23.50;20.00;;;;;;;;5078146;27;51042;-44
2022/12/04 09:33:17;;;;;;;;;24.75;21.75;;;;;;;;5060719;28;51010;-45
2022/12/04 09:36:02;;;;;;;;;24.75;21.75;;;;;;;;5060526;28;51568;-46
2022/12/04 09:38:48;;;;;;;;;19.00;19.00;;;;;;;;5060043;28;51356;-44
2022/12/04 09:41:35;;;;;;;;;20.75;19.50;;;;;;;;5059992;28;51153;-46
2022/12/04 09:44:32;;;;;;;;;23.25;21.25;;;;;;;;5060810;28;51085;-46
2022/12/04 09:47:35;;;;;;;;;21.25;19.25;;;;;;;;5060308;28;51525;-45
2022/12/04 09:50:19;;;;;;;;;16.75;16.25;;;;;;;;5060058;28;51183;-46
2022/12/04 09:53:13;;;;;;;;;24.00;20.25;;;;;;;;5060341;28;51425;-46
2022/12/04 09:55:56;;;;;;;;;23.75;21.25;;;;;;;;5060164;28;51184;-47
2022/12/04 09:58:52;;;;;;;;;21.00;19.25;;;;;;;;5059745;28;50968;-45
2022/12/04 10:02:06;;;;;;;;;22.50;18.50;;;;;;;;5059774;28;51023;-51
2022/12/04 10:04:50;;;;;;;;;24.50;23.50;;;;;;;;5056107;27;50998;-51
2022/12/04 10:07:53;;;;;;;;;24.75;20.50;;;;;;;;5059824;28;51224;-49
2022/12/04 10:10:39;;;;;;;;;24.00;23.75;;;;;;;;5074940;27;51049;-51
2022/12/04 10:13:38;;;;;;;;;23.00;22.50;;;;;;;;5079961;27;51163;-48
2022/12/04 10:16:22;;;;;;;;;23.50;20.25;;;;;;;;5093277;27;51165;-49
2022/12/04 10:19:10;;;;;;;;;18.25;16.25;;;;;;;;5072869;27;51526;-49
2022/12/04 10:22:21;;;;;;;;;22.25;20.75;;;;;;;;5057924;28;51127;-47
2022/12/04 10:25:13;;;;;;;;;21.75;19.00;;;;;;;;5053166;27;51097;-47
2022/12/04 10:28:16;;;;;;;;;18.00;17.00;;;;;;;;5078920;27;51128;-51
2022/12/04 10:31:02;;;;;;;;;20.50;19.50;;;;;;;;5079549;27;51374;-47
2022/12/04 10:33:50;;;;;;;;;15.50;15.25;;;;;;;;5077529;27;50968;-47
2022/12/04 10:36:34;;;;;;;;;22.00;20.25;;;;;;;;5079031;27;51108;-48
2022/12/04 10:39:20;;;;;;;;;17.25;17.00;;;;;;;;5072255;27;51437;-49
2022/12/04 10:42:04;;;;;;;;;21.00;16.50;;;;;;;;5079209;27;51054;-51
2022/12/04 10:44:48;;;;;;;;;19.75;18.00;;;;;;;;5079519;27;51401;-46
2022/12/04 10:47:33;;;;;;;;;16.75;16.00;;;;;;;;5079499;27;51124;-47
2022/12/04 10:50:20;;;;;;;;;20.00;19.50;;;;;;;;5079012;27;51117;-47
2022/12/04 10:53:04;;;;;;;;;23.50;19.00;;;;;;;;5078607;27;51172;-46
2022/12/04 10:55:48;;;;;;;;;22.50;21.25;;;;;;;;5077716;27;51183;-50
2022/12/04 10:58:33;;;;;;;;;19.75;19.00;;;;;;;;5079153;27;51200;-45
2022/12/04 11:01:20;;;;;;;;;19.25;17.00;;;;;;;;5078226;27;51062;-48
2022/12/04 11:04:07;;;;;;;;;17.75;17.50;;;;;;;;5079410;27;51439;-46
2022/12/04 11:07:03;;;;;;;;;24.50;19.00;;;;;;;;5076530;27;51120;-50
2022/12/04 11:09:57;;;;;;;;;19.00;17.25;;;;;;;;5079433;28;51539;-50
2022/12/04 11:12:52;;;;;;;;;21.50;20.50;;;;;;;;5078579;28;51015;-46
2022/12/04 11:15:46;;;;;;;;;19.75;18.50;;;;;;;;5079410;28;51126;-48
2022/12/04 11:18:32;;;;;;;;;23.25;20.00;;;;;;;;5074108;28;50985;-47
2022/12/04 11:21:21;;;;;;;;;21.50;19.75;;;;;;;;5074693;28;52017;-49
2022/12/04 11:24:14;;;;;;;;;24.25;19.25;;;;;;;;5058827;28;51062;-46
2022/12/04 11:26:58;;;;;;;;;23.00;20.50;;;;;;;;5059473;28;51050;-49
2022/12/04 11:29:44;;;;;;;;;19.75;17.50;;;;;;;;5059248;28;51020;-47
2022/12/04 11:32:30;;;;;;;;;19.75;19.25;;;;;;;;5059173;28;51217;-49
2022/12/04 11:35:17;;;;;;;;;22.75;21.00;;;;;;;;5059059;28;51199;-46
2022/12/04 11:38:15;;;;;;;;;23.00;21.75;;;;;;;;5059239;28;51211;-47
2022/12/04 11:41:00;;;;;;;;;21.75;18.75;;;;;;;;5059341;28;51177;-48
2022/12/04 11:43:49;;;;;;;;;23.50;21.75;;;;;;;;5059262;28;51295;-45
2022/12/04 11:46:33;;;;;;;;;24.25;19.25;;;;;;;;5058989;28;51391;-50
2022/12/04 11:49:24;;;;;;;;;22.25;20.25;;;;;;;;5076115;27;51208;-45
2022/12/04 11:52:24;;;;;;;;;26.50;20.00;;;;;;;;5080562;27;52497;-47
2022/12/04 11:55:24;;;;;;;;;28.00;23.50;;;;;;;;5082415;27;51078;-49
2022/12/04 11:58:12;;;;;;;;;22.50;21.50;;;;;;;;5078082;27;51139;-49
2022/12/04 12:01:08;;;;;;;;;25.00;20.00;;;;;;;;5068360;27;51468;-46
2022/12/04 12:04:04;;;;;;;;;20.50;17.25;;;;;;;;5063875;27;51064;-48
2022/12/04 12:07:07;;;;;;;;;25.50;21.00;;;;;;;;5066972;27;51195;-45
2022/12/04 12:10:10;;;;;;;;;25.50;22.50;;;;;;;;5068647;27;51132;-49
2022/12/04 12:13:07;;;;;;;;;27.75;23.50;;;;;;;;5065467;27;51138;-45
2022/12/04 12:16:11;;;;;;;;;27.50;21.50;;;;;;;;5062137;28;51272;-48
2022/12/04 12:18:56;;;;;;;;;23.25;19.50;;;;;;;;5062598;28;51093;-48
2022/12/04 12:21:46;;;;;;;;;26.00;22.50;;;;;;;;5061390;28;51110;-47
2022/12/04 12:24:33;;;;;;;;;24.50;22.75;;;;;;;;5075324;27;51199;-51
2022/12/04 12:27:26;;;;;;;;;24.75;23.75;;;;;;;;5082379;27;51311;-51
2022/12/04 12:30:16;;;;;;;;;25.25;23.25;;;;;;;;5082276;27;51114;-50
2022/12/04 12:33:09;;;;;;;;;25.00;21.25;;;;;;;;5072318;27;51032;-48
2022/12/04 12:36:05;;;;;;;;;20.00;19.25;;;;;;;;5061981;28;51209;-48
2022/12/04 12:39:02;;;;;;;;;28.00;24.75;;;;;;;;5064274;27;51207;-45
2022/12/04 12:41:50;;;;;;;;;25.00;23.00;;;;;;;;5064325;28;51043;-46
2022/12/04 12:44:37;;;;;;;;;28.25;23.25;;;;;;;;5061916;28;51094;-51
2022/12/04 12:47:24;;;;;;;;;24.25;21.50;;;;;;;;5061857;28;51401;-49
2022/12/04 12:50:13;;;;;;;;;28.50;24.25;;;;;;;;5062048;28;51083;-45
2022/12/04 12:53:00;;;;;;;;;26.50;24.00;;;;;;;;5067798;27;51529;-46
2022/12/04 12:55:51;;;;;;;;;26.50;22.25;;;;;;;;5061422;28;51184;-45
2022/12/04 12:58:42;;;;;;;;;27.25;23.25;;;;;;;;5078313;27;51016;-46
2022/12/04 13:01:30;;;;;;;;;25.25;21.50;;;;;;;;5080606;27;51223;-49
2022/12/04 13:04:34;;;;;;;;;31.75;26.75;;;;;;;;5081941;27;51355;-46
2022/12/04 13:07:43;;;;;;;;;28.00;23.75;;;;;;;;5081821;27;51166;-48
2022/12/04 13:10:29;;;;;;;;;24.75;23.00;;;;;;;;5082077;27;51008;-50
2022/12/04 13:13:21;;;;;;;;;28.00;21.50;;;;;;;;5081583;27;51175;-48
2022/12/04 13:16:09;;;;;;;;;22.25;21.50;;;;;;;;5081723;27;51144;-48
2022/12/04 13:19:09;;;;;;;;;25.25;22.00;;;;;;;;5081604;27;51542;-47
2022/12/04 13:22:02;;;;;;;;;28.75;24.75;;;;;;;;5081363;27;51106;-49
2022/12/04 13:24:53;;;;;;;;;25.75;25.25;;;;;;;;5081161;27;51354;-46
2022/12/04 13:27:41;;;;;;;;;28.00;21.50;;;;;;;;5081457;27;51130;-48
2022/12/04 13:30:40;;;;;;;;;29.75;22.75;;;;;;;;5081547;27;51484;-45
2022/12/04 13:33:43;;;;;;;;;28.50;24.00;;;;;;;;5074560;27;51188;-50
2022/12/04 13:36:39;;;;;;;;;27.50;24.75;;;;;;;;5081658;27;51061;-49
2022/12/04 13:39:42;;;;;;;;;29.25;25.00;;;;;;;;5080991;27;51106;-47
2022/12/04 13:42:27;;;;;;;;;26.00;20.25;;;;;;;;5081237;27;50970;-50
2022/12/04 13:45:23;;;;;;;;;24.50;21.50;;;;;;;;5081047;27;51069;-51
2022/12/04 13:48:08;;;;;;;;;21.00;21.00;;;;;;;;5062336;28;51079;-48
2022/12/04 13:51:00;;;;;;;;;31.75;22.50;;;;;;;;5065184;27;51441;-46
2022/12/04 13:53:44;;;;;;;;;29.25;26.00;;;;;;;;5059023;28;51194;-48
2022/12/04 13:56:30;;;;;;;;;27.25;23.50;;;;;;;;5060737;28;50951;-48
2022/12/04 13:59:26;;;;;;;;;25.75;21.75;;;;;;;;5060220;28;51035;-49
2022/12/04 14:02:24;;;;;;;;;24.00;24.00;;;;;;;;5060681;28;51485;-47
2022/12/04 14:05:13;;;;;;;;;22.50;20.00;;;;;;;;5060119;28;51101;-47
2022/12/04 14:08:17;;;;;;;;;24.25;21.25;;;;;;;;5060444;28;51056;-47
2022/12/04 14:11:02;;;;;;;;;25.00;22.25;;;;;;;;5060433;28;51470;-50
2022/12/04 14:13:48;;;;;;;;;27.00;25.25;;;;;;;;5060132;28;51128;-44
2022/12/04 14:16:36;;;;;;;;;21.50;17.75;;;;;;;;5059884;28;51565;-46
2022/12/04 14:19:27;;;;;;;;;25.50;23.00;;;;;;;;5059858;28;51175;-45
2022/12/04 14:22:28;;;;;;;;;31.00;22.00;;;;;;;;5060098;28;51704;-44
2022/12/04 14:25:13;;;;;;;;;22.50;22.25;;;;;;;;5066406;27;51057;-44
2022/12/04 14:27:57;;;;;;;;;26.50;21.00;;;;;;;;5066959;27;51025;-43
2022/12/04 14:30:43;;;;;;;;;28.75;20.50;;;;;;;;5060523;27;51465;-47
2022/12/04 14:33:29;;;;;;;;;24.00;21.25;;;;;;;;5061221;27;52384;-43
2022/12/04 14:36:23;;;;;;;;;27.00;23.25;;;;;;;;5059169;28;51417;-46
2022/12/04 14:39:17;;;;;;;;;22.75;21.50;;;;;;;;5079425;27;51113;-45
2022/12/04 14:42:06;;;;;;;;;24.00;22.00;;;;;;;;5079572;27;51109;-45
2022/12/04 14:45:01;;;;;;;;;25.00;21.50;;;;;;;;5079785;27;51188;-43
2022/12/04 14:47:51;;;;;;;;;29.75;24.25;;;;;;;;5079397;27;51124;-49
2022/12/04 14:50:42;;;;;;;;;24.25;22.25;;;;;;;;5079470;27;51042;-44
2022/12/04 14:53:38;;;;;;;;;27.75;22.50;;;;;;;;5079461;27;51152;-48
2022/12/04 14:56:24;;;;;;;;;26.50;23.50;;;;;;;;5078809;27;50973;-47
2022/12/04 14:59:18;;;;;;;;;32.00;23.00;;;;;;;;5065899;27;51148;-44
2022/12/04 15:02:03;;;;;;;;;23.50;22.00;;;;;;;;5063415;28;51515;-45
2022/12/04 15:04:49;;;;;;;;;24.00;23.25;;;;;;;;5066799;27;51090;-47
2022/12/04 15:07:33;;;;;;;;;23.75;19.25;;;;;;;;5078315;27;51197;-44
2022/12/04 15:13:28;;;;;;;;;27.00;25.50;;;;;;;;5063762;28;51543;-45
2022/12/04 15:16:15;;;;;;;;;26.25;20.25;;;;;;;;5058784;28;51100;-45
2022/12/04 15:19:00;;;;;;;;;26.75;22.00;;;;;;;;5065471;28;51125;-44
2022/12/04 15:21:45;;;;;;;;;22.50;20.50;;;;;;;;5064321;28;51542;-47
2022/12/04 15:24:29;;;;;;;;;24.75;22.50;;;;;;;;5062307;28;51071;-44
2022/12/04 15:27:16;;;;;;;;;24.25;20.00;;;;;;;;5067592;27;51132;-48
2022/12/04 15:30:01;;;;;;;;;20.75;18.25;;;;;;;;5063945;27;51315;-46
2022/12/04 15:32:49;;;;;;;;;19.50;17.25;;;;;;;;5068334;27;51472;-45
2022/12/04 15:35:33;;;;;;;;;22.25;17.75;;;;;;;;5060889;27;51156;-48
2022/12/04 15:38:18;;;;;;;;;22.00;19.75;;;;;;;;5068131;27;51447;-45
2022/12/04 15:41:02;;;;;;;;;25.25;16.50;;;;;;;;5066949;27;51214;-49
2022/12/04 15:43:47;;;;;;;;;21.00;19.00;;;;;;;;5069508;27;51085;-44
2022/12/04 15:46:33;;;;;;;;;22.50;19.00;;;;;;;;5062498;27;51100;-45
2022/12/04 15:49:27;;;;;;;;;4.75;2.00;;;;;;;;5071452;27;51173;-48
2022/12/04 15:52:14;;;;;;;;;26.75;18.00;;;;;;;;5082152;27;51124;-47
2022/12/04 15:54:59;;;;;;;;;19.75;17.25;;;;;;;;5072014;27;51003;-45
2022/12/04 15:57:50;;;;;;;;;18.25;15.25;;;;;;;;5067077;27;51190;-45
2022/12/04 16:00:36;;;;;;;;;22.25;15.00;;;;;;;;5068761;27;51197;-47
2022/12/04 16:03:29;;;;;;;;;21.50;17.00;;;;;;;;5062925;27;51099;-44
2022/12/04 16:06:27;;;;;;;;;22.50;18.25;;;;;;;;5069930;27;51146;-44
2022/12/04 16:09:29;;;;;;;;;18.25;16.75;;;;;;;;5076932;27;51220;-44
2022/12/04 16:12:22;;;;;;;;;19.75;15.50;;;;;;;;5068729;27;51549;-45
2022/12/04 16:15:07;;;;;;;;;24.25;17.75;;;;;;;;5084505;27;51086;-45
2022/12/04 16:17:51;;;;;;;;;21.75;17.00;;;;;;;;5063675;27;51093;-44
2022/12/04 16:20:37;;;;;;;;;20.50;16.75;;;;;;;;5068308;27;51031;-47
2022/12/04 16:23:22;;;;;;;;;18.25;15.75;;;;;;;;5074571;27;51420;-44
2022/12/04 16:26:14;;;;;;;;;18.75;17.00;;;;;;;;5064356;27;51177;-48
2022/12/04 16:28:58;;;;;;;;;19.50;16.00;;;;;;;;5065305;27;51497;-47
2022/12/04 16:31:43;;;;;;;;;18.00;16.25;;;;;;;;5063681;27;51079;-46